sensor_id;sensor_type;location;lat;lon;timestamp;P1;durP1;ratioP1;P2;durP2;ratioP2
21352;SDS011;10834;52.268;6.770;2022-07-19T00:00:04;3.92;;;3.03;;
21352;SDS011;10834;52.268;6.770;2022-07-19T00:02:54;4.45;;;3.03;;
21352;SDS011;10834;52.268;6.770;2022-07-19T00:05:40;3.53;;;3.00;;
21352;SDS011;10834;52.268;6.770;2022-07-19T00:08:26;3.53;;;2.88;;
21352;SDS011;10834;52.268;6.770;2022-07-19T00:11:12;3.45;;;2.70;;
21352;SDS011;10834;52.268;6.770;2022-07-19T00:13:58;3.22;;;2.90;;
21352;SDS011;10834;52.268;6.770;2022-07-19T00:16:44;3.80;;;3.40;;
21352;SDS011;10834;52.268;6.770;2022-07-19T00:19:30;4.47;;;3.60;;
21352;SDS011;10834;52.268;6.770;2022-07-19T00:22:16;3.20;;;2.97;;
21352;SDS011;10834;52.268;6.770;2022-07-19T00:25:03;3.45;;;2.97;;
21352;SDS011;10834;52.268;6.770;2022-07-19T00:27:49;3.38;;;2.85;;
21352;SDS011;10834;52.268;6.770;2022-07-19T00:30:36;4.90;;;3.33;;
21352;SDS011;10834;52.268;6.770;2022-07-19T00:33:22;4.35;;;3.10;;
21352;SDS011;10834;52.268;6.770;2022-07-19T00:36:08;3.53;;;2.85;;
21352;SDS011;10834;52.268;6.770;2022-07-19T00:38:54;4.90;;;3.47;;
21352;SDS011;10834;52.268;6.770;2022-07-19T00:41:40;3.10;;;2.80;;
21352;SDS011;10834;52.268;6.770;2022-07-19T00:44:29;4.20;;;3.08;;
21352;SDS011;10834;52.268;6.770;2022-07-19T00:47:15;3.30;;;2.92;;
21352;SDS011;10834;52.268;6.770;2022-07-19T00:50:02;5.15;;;3.28;;
21352;SDS011;10834;52.268;6.770;2022-07-19T00:52:50;3.90;;;3.47;;
21352;SDS011;10834;52.268;6.770;2022-07-19T00:55:47;3.13;;;2.80;;
21352;SDS011;10834;52.268;6.770;2022-07-19T00:58:34;5.32;;;2.72;;
21352;SDS011;10834;52.268;6.770;2022-07-19T01:01:21;3.15;;;2.70;;
21352;SDS011;10834;52.268;6.770;2022-07-19T01:04:07;3.45;;;3.15;;
21352;SDS011;10834;52.268;6.770;2022-07-19T01:06:54;2.50;;;2.30;;
21352;SDS011;10834;52.268;6.770;2022-07-19T01:09:40;3.33;;;2.70;;
21352;SDS011;10834;52.268;6.770;2022-07-19T01:12:27;3.17;;;2.88;;
21352;SDS011;10834;52.268;6.770;2022-07-19T01:15:16;4.28;;;2.63;;
21352;SDS011;10834;52.268;6.770;2022-07-19T01:18:03;4.70;;;2.92;;
21352;SDS011;10834;52.268;6.770;2022-07-19T01:20:50;2.85;;;2.63;;
21352;SDS011;10834;52.268;6.770;2022-07-19T01:23:36;5.05;;;3.38;;
21352;SDS011;10834;52.268;6.770;2022-07-19T01:26:22;3.13;;;2.83;;
21352;SDS011;10834;52.268;6.770;2022-07-19T01:29:13;3.17;;;2.83;;
21352;SDS011;10834;52.268;6.770;2022-07-19T01:32:00;4.13;;;3.05;;
21352;SDS011;10834;52.268;6.770;2022-07-19T01:34:46;3.05;;;2.75;;
21352;SDS011;10834;52.268;6.770;2022-07-19T01:37:33;3.03;;;2.70;;
21352;SDS011;10834;52.268;6.770;2022-07-19T01:40:19;2.65;;;2.45;;
21352;SDS011;10834;52.268;6.770;2022-07-19T01:43:06;3.95;;;3.00;;
21352;SDS011;10834;52.268;6.770;2022-07-19T01:45:52;3.15;;;2.20;;
21352;SDS011;10834;52.268;6.770;2022-07-19T01:48:39;2.85;;;2.65;;
21352;SDS011;10834;52.268;6.770;2022-07-19T01:51:25;3.15;;;2.65;;
21352;SDS011;10834;52.268;6.770;2022-07-19T01:54:11;3.15;;;2.80;;
21352;SDS011;10834;52.268;6.770;2022-07-19T01:56:57;3.10;;;2.90;;
21352;SDS011;10834;52.268;6.770;2022-07-19T01:59:43;3.17;;;2.72;;
21352;SDS011;10834;52.268;6.770;2022-07-19T02:02:29;3.17;;;2.88;;
21352;SDS011;10834;52.268;6.770;2022-07-19T02:05:15;2.97;;;2.67;;
21352;SDS011;10834;52.268;6.770;2022-07-19T02:08:02;3.13;;;2.83;;
21352;SDS011;10834;52.268;6.770;2022-07-19T02:10:48;3.35;;;3.05;;
21352;SDS011;10834;52.268;6.770;2022-07-19T02:13:34;3.20;;;2.90;;
21352;SDS011;10834;52.268;6.770;2022-07-19T02:16:20;2.70;;;2.50;;
21352;SDS011;10834;52.268;6.770;2022-07-19T02:19:07;2.60;;;2.40;;
21352;SDS011;10834;52.268;6.770;2022-07-19T02:21:53;2.95;;;2.72;;
21352;SDS011;10834;52.268;6.770;2022-07-19T02:24:39;3.20;;;2.90;;
21352;SDS011;10834;52.268;6.770;2022-07-19T02:27:27;3.10;;;2.80;;
21352;SDS011;10834;52.268;6.770;2022-07-19T02:30:14;2.65;;;2.45;;
21352;SDS011;10834;52.268;6.770;2022-07-19T02:33:02;2.65;;;2.25;;
21352;SDS011;10834;52.268;6.770;2022-07-19T02:35:48;3.10;;;2.80;;
21352;SDS011;10834;52.268;6.770;2022-07-19T02:38:34;3.33;;;2.90;;
21352;SDS011;10834;52.268;6.770;2022-07-19T02:41:20;3.00;;;2.80;;
21352;SDS011;10834;52.268;6.770;2022-07-19T02:44:06;3.40;;;2.72;;
21352;SDS011;10834;52.268;6.770;2022-07-19T02:46:52;3.10;;;2.75;;
21352;SDS011;10834;52.268;6.770;2022-07-19T02:49:38;3.13;;;2.90;;
21352;SDS011;10834;52.268;6.770;2022-07-19T02:52:24;4.43;;;2.72;;
21352;SDS011;10834;52.268;6.770;2022-07-19T02:55:10;2.72;;;2.45;;
21352;SDS011;10834;52.268;6.770;2022-07-19T02:57:56;4.25;;;2.85;;
21352;SDS011;10834;52.268;6.770;2022-07-19T03:00:43;3.22;;;2.92;;
21352;SDS011;10834;52.268;6.770;2022-07-19T03:03:28;3.00;;;2.60;;
21352;SDS011;10834;52.268;6.770;2022-07-19T03:06:30;2.97;;;2.67;;
21352;SDS011;10834;52.268;6.770;2022-07-19T03:09:16;2.60;;;2.40;;
21352;SDS011;10834;52.268;6.770;2022-07-19T03:12:02;2.63;;;2.42;;
21352;SDS011;10834;52.268;6.770;2022-07-19T03:14:48;2.78;;;2.58;;
21352;SDS011;10834;52.268;6.770;2022-07-19T03:17:34;3.13;;;2.70;;
21352;SDS011;10834;52.268;6.770;2022-07-19T03:20:20;3.70;;;2.70;;
21352;SDS011;10834;52.268;6.770;2022-07-19T03:23:06;2.63;;;2.42;;
21352;SDS011;10834;52.268;6.770;2022-07-19T03:25:53;3.38;;;3.08;;
21352;SDS011;10834;52.268;6.770;2022-07-19T03:28:39;2.85;;;2.65;;
21352;SDS011;10834;52.268;6.770;2022-07-19T03:31:25;2.95;;;2.60;;
21352;SDS011;10834;52.268;6.770;2022-07-19T03:34:11;3.60;;;2.42;;
21352;SDS011;10834;52.268;6.770;2022-07-19T03:36:57;3.00;;;2.70;;
21352;SDS011;10834;52.268;6.770;2022-07-19T03:39:43;2.55;;;2.35;;
21352;SDS011;10834;52.268;6.770;2022-07-19T03:42:29;2.60;;;2.40;;
21352;SDS011;10834;52.268;6.770;2022-07-19T03:45:15;2.63;;;2.42;;
21352;SDS011;10834;52.268;6.770;2022-07-19T03:48:01;2.47;;;2.25;;
21352;SDS011;10834;52.268;6.770;2022-07-19T03:50:47;3.03;;;2.83;;
21352;SDS011;10834;52.268;6.770;2022-07-19T03:53:33;3.17;;;2.63;;
21352;SDS011;10834;52.268;6.770;2022-07-19T03:56:20;2.85;;;2.65;;
21352;SDS011;10834;52.268;6.770;2022-07-19T03:59:06;2.50;;;2.30;;
21352;SDS011;10834;52.268;6.770;2022-07-19T04:01:52;2.55;;;2.35;;
21352;SDS011;10834;52.268;6.770;2022-07-19T04:04:38;2.75;;;2.55;;
21352;SDS011;10834;52.268;6.770;2022-07-19T04:07:24;2.90;;;2.63;;
21352;SDS011;10834;52.268;6.770;2022-07-19T04:10:10;2.60;;;2.38;;
21352;SDS011;10834;52.268;6.770;2022-07-19T04:12:56;3.08;;;2.88;;
21352;SDS011;10834;52.268;6.770;2022-07-19T04:15:42;3.15;;;2.85;;
21352;SDS011;10834;52.268;6.770;2022-07-19T04:18:28;2.75;;;2.17;;
21352;SDS011;10834;52.268;6.770;2022-07-19T04:21:14;5.15;;;2.63;;
21352;SDS011;10834;52.268;6.770;2022-07-19T04:24:00;2.70;;;2.50;;
21352;SDS011;10834;52.268;6.770;2022-07-19T04:26:47;2.65;;;2.45;;
21352;SDS011;10834;52.268;6.770;2022-07-19T04:29:33;2.60;;;2.40;;
21352;SDS011;10834;52.268;6.770;2022-07-19T04:32:19;2.38;;;2.25;;
21352;SDS011;10834;52.268;6.770;2022-07-19T04:35:05;2.85;;;2.55;;
21352;SDS011;10834;52.268;6.770;2022-07-19T04:37:52;2.65;;;2.45;;
21352;SDS011;10834;52.268;6.770;2022-07-19T04:40:38;2.83;;;2.58;;
21352;SDS011;10834;52.268;6.770;2022-07-19T04:43:24;2.60;;;2.40;;
21352;SDS011;10834;52.268;6.770;2022-07-19T04:46:10;3.08;;;2.67;;
21352;SDS011;10834;52.268;6.770;2022-07-19T04:48:56;2.50;;;2.38;;
21352;SDS011;10834;52.268;6.770;2022-07-19T04:51:42;2.85;;;2.65;;
21352;SDS011;10834;52.268;6.770;2022-07-19T04:54:28;3.72;;;2.67;;
21352;SDS011;10834;52.268;6.770;2022-07-19T04:57:14;2.50;;;2.30;;
21352;SDS011;10834;52.268;6.770;2022-07-19T05:00:01;2.78;;;2.58;;
21352;SDS011;10834;52.268;6.770;2022-07-19T05:02:49;2.60;;;2.40;;
21352;SDS011;10834;52.268;6.770;2022-07-19T05:05:35;2.30;;;2.20;;
21352;SDS011;10834;52.268;6.770;2022-07-19T05:08:21;2.65;;;2.45;;
21352;SDS011;10834;52.268;6.770;2022-07-19T05:11:07;3.13;;;2.78;;
21352;SDS011;10834;52.268;6.770;2022-07-19T05:13:53;2.53;;;2.33;;
21352;SDS011;10834;52.268;6.770;2022-07-19T05:16:39;3.28;;;2.50;;
21352;SDS011;10834;52.268;6.770;2022-07-19T05:19:26;2.40;;;2.30;;
21352;SDS011;10834;52.268;6.770;2022-07-19T05:22:12;2.55;;;2.35;;
21352;SDS011;10834;52.268;6.770;2022-07-19T05:24:58;2.50;;;2.30;;
21352;SDS011;10834;52.268;6.770;2022-07-19T05:27:44;2.65;;;2.45;;
21352;SDS011;10834;52.268;6.770;2022-07-19T05:30:30;3.03;;;2.72;;
21352;SDS011;10834;52.268;6.770;2022-07-19T05:33:17;2.53;;;2.33;;
21352;SDS011;10834;52.268;6.770;2022-07-19T05:36:03;3.35;;;3.05;;
21352;SDS011;10834;52.268;6.770;2022-07-19T05:38:49;3.08;;;2.50;;
21352;SDS011;10834;52.268;6.770;2022-07-19T05:41:36;2.70;;;2.50;;
21352;SDS011;10834;52.268;6.770;2022-07-19T05:44:22;3.33;;;2.33;;
21352;SDS011;10834;52.268;6.770;2022-07-19T05:47:08;2.45;;;2.25;;
21352;SDS011;10834;52.268;6.770;2022-07-19T05:49:54;2.92;;;2.72;;
21352;SDS011;10834;52.268;6.770;2022-07-19T05:52:41;3.17;;;2.88;;
21352;SDS011;10834;52.268;6.770;2022-07-19T05:55:27;2.40;;;2.20;;
21352;SDS011;10834;52.268;6.770;2022-07-19T05:58:13;2.40;;;2.20;;
21352;SDS011;10834;52.268;6.770;2022-07-19T06:00:59;3.15;;;2.33;;
21352;SDS011;10834;52.268;6.770;2022-07-19T06:04:04;2.47;;;2.28;;
21352;SDS011;10834;52.268;6.770;2022-07-19T06:06:50;2.75;;;2.25;;
21352;SDS011;10834;52.268;6.770;2022-07-19T06:09:36;2.30;;;1.70;;
21352;SDS011;10834;52.268;6.770;2022-07-19T06:12:22;2.47;;;2.28;;
21352;SDS011;10834;52.268;6.770;2022-07-19T06:15:08;2.95;;;2.65;;
21352;SDS011;10834;52.268;6.770;2022-07-19T06:17:55;2.28;;;2.08;;
21352;SDS011;10834;52.268;6.770;2022-07-19T06:20:41;2.80;;;2.60;;
21352;SDS011;10834;52.268;6.770;2022-07-19T06:23:28;2.28;;;2.17;;
21352;SDS011;10834;52.268;6.770;2022-07-19T06:26:14;2.20;;;2.08;;
21352;SDS011;10834;52.268;6.770;2022-07-19T06:29:00;2.58;;;2.38;;
21352;SDS011;10834;52.268;6.770;2022-07-19T06:31:46;2.22;;;2.13;;
21352;SDS011;10834;52.268;6.770;2022-07-19T06:34:33;2.53;;;2.33;;
21352;SDS011;10834;52.268;6.770;2022-07-19T06:37:19;2.97;;;2.50;;
21352;SDS011;10834;52.268;6.770;2022-07-19T06:40:07;2.35;;;2.15;;
21352;SDS011;10834;52.268;6.770;2022-07-19T06:42:53;2.08;;;1.92;;
21352;SDS011;10834;52.268;6.770;2022-07-19T06:45:39;2.55;;;2.28;;
21352;SDS011;10834;52.268;6.770;2022-07-19T06:48:26;2.30;;;2.10;;
21352;SDS011;10834;52.268;6.770;2022-07-19T06:51:12;2.53;;;2.20;;
21352;SDS011;10834;52.268;6.770;2022-07-19T06:53:58;3.72;;;2.25;;
21352;SDS011;10834;52.268;6.770;2022-07-19T06:56:44;2.17;;;1.92;;
21352;SDS011;10834;52.268;6.770;2022-07-19T06:59:30;3.00;;;2.65;;
21352;SDS011;10834;52.268;6.770;2022-07-19T07:02:16;2.75;;;2.10;;
21352;SDS011;10834;52.268;6.770;2022-07-19T07:05:03;3.05;;;2.40;;
21352;SDS011;10834;52.268;6.770;2022-07-19T07:07:50;4.03;;;2.63;;
21352;SDS011;10834;52.268;6.770;2022-07-19T07:10:39;3.30;;;2.33;;
21352;SDS011;10834;52.268;6.770;2022-07-19T07:13:25;2.35;;;2.15;;
21352;SDS011;10834;52.268;6.770;2022-07-19T07:16:11;2.67;;;2.38;;
21352;SDS011;10834;52.268;6.770;2022-07-19T07:18:57;2.65;;;2.30;;
21352;SDS011;10834;52.268;6.770;2022-07-19T07:21:43;3.15;;;2.50;;
21352;SDS011;10834;52.268;6.770;2022-07-19T07:24:29;5.75;;;2.38;;
21352;SDS011;10834;52.268;6.770;2022-07-19T07:27:15;2.38;;;2.17;;
21352;SDS011;10834;52.268;6.770;2022-07-19T07:30:02;2.60;;;2.40;;
21352;SDS011;10834;52.268;6.770;2022-07-19T07:32:49;2.10;;;1.90;;
21352;SDS011;10834;52.268;6.770;2022-07-19T07:35:35;2.33;;;2.13;;
21352;SDS011;10834;52.268;6.770;2022-07-19T07:38:21;2.97;;;2.17;;
21352;SDS011;10834;52.268;6.770;2022-07-19T07:41:07;2.55;;;2.35;;
21352;SDS011;10834;52.268;6.770;2022-07-19T07:43:53;3.53;;;2.40;;
21352;SDS011;10834;52.268;6.770;2022-07-19T07:46:39;2.45;;;2.25;;
21352;SDS011;10834;52.268;6.770;2022-07-19T07:49:26;2.38;;;2.17;;
21352;SDS011;10834;52.268;6.770;2022-07-19T07:52:12;2.25;;;2.05;;
21352;SDS011;10834;52.268;6.770;2022-07-19T07:54:58;3.08;;;2.15;;
21352;SDS011;10834;52.268;6.770;2022-07-19T07:57:45;2.45;;;2.25;;
21352;SDS011;10834;52.268;6.770;2022-07-19T08:00:31;2.67;;;2.08;;
21352;SDS011;10834;52.268;6.770;2022-07-19T08:03:17;2.58;;;2.20;;
21352;SDS011;10834;52.268;6.770;2022-07-19T08:06:03;2.38;;;2.00;;
21352;SDS011;10834;52.268;6.770;2022-07-19T08:08:49;2.03;;;1.92;;
21352;SDS011;10834;52.268;6.770;2022-07-19T08:11:35;2.60;;;2.40;;
21352;SDS011;10834;52.268;6.770;2022-07-19T08:14:21;2.38;;;2.17;;
21352;SDS011;10834;52.268;6.770;2022-07-19T08:17:07;2.42;;;2.22;;
21352;SDS011;10834;52.268;6.770;2022-07-19T08:19:54;1.92;;;1.77;;
21352;SDS011;10834;52.268;6.770;2022-07-19T08:22:40;2.13;;;1.95;;
21352;SDS011;10834;52.268;6.770;2022-07-19T08:25:26;2.55;;;2.35;;
21352;SDS011;10834;52.268;6.770;2022-07-19T08:28:12;2.35;;;2.00;;
21352;SDS011;10834;52.268;6.770;2022-07-19T08:30:59;2.97;;;2.45;;
21352;SDS011;10834;52.268;6.770;2022-07-19T08:33:45;2.45;;;2.03;;
21352;SDS011;10834;52.268;6.770;2022-07-19T08:36:31;2.92;;;2.63;;
21352;SDS011;10834;52.268;6.770;2022-07-19T08:39:17;2.40;;;2.25;;
21352;SDS011;10834;52.268;6.770;2022-07-19T08:42:03;1.95;;;1.85;;
21352;SDS011;10834;52.268;6.770;2022-07-19T08:44:52;2.80;;;2.08;;
21352;SDS011;10834;52.268;6.770;2022-07-19T08:47:39;2.20;;;2.10;;
21352;SDS011;10834;52.268;6.770;2022-07-19T08:50:26;2.42;;;2.22;;
21352;SDS011;10834;52.268;6.770;2022-07-19T08:53:14;2.38;;;1.98;;
21352;SDS011;10834;52.268;6.770;2022-07-19T08:56:00;2.30;;;2.10;;
21352;SDS011;10834;52.268;6.770;2022-07-19T08:58:46;2.45;;;2.05;;
21352;SDS011;10834;52.268;6.770;2022-07-19T09:01:33;2.70;;;2.40;;
21352;SDS011;10834;52.268;6.770;2022-07-19T09:04:20;2.10;;;1.90;;
21352;SDS011;10834;52.268;6.770;2022-07-19T09:07:10;1.90;;;1.70;;
21352;SDS011;10834;52.268;6.770;2022-07-19T09:10:22;2.03;;;1.92;;
21352;SDS011;10834;52.268;6.770;2022-07-19T09:13:11;2.70;;;2.13;;
21352;SDS011;10834;52.268;6.770;2022-07-19T09:15:58;2.00;;;1.90;;
21352;SDS011;10834;52.268;6.770;2022-07-19T09:18:44;2.30;;;2.10;;
21352;SDS011;10834;52.268;6.770;2022-07-19T09:21:35;2.08;;;1.98;;
21352;SDS011;10834;52.268;6.770;2022-07-19T09:24:41;1.98;;;1.83;;
21352;SDS011;10834;52.268;6.770;2022-07-19T09:27:28;2.17;;;1.98;;
21352;SDS011;10834;52.268;6.770;2022-07-19T09:30:14;1.70;;;1.60;;
21352;SDS011;10834;52.268;6.770;2022-07-19T09:36:15;1.70;;;1.60;;
21352;SDS011;10834;52.268;6.770;2022-07-19T09:39:01;1.75;;;1.65;;
21352;SDS011;10834;52.268;6.770;2022-07-19T09:41:56;1.83;;;1.73;;
21352;SDS011;10834;52.268;6.770;2022-07-19T09:44:43;1.70;;;1.60;;
21352;SDS011;10834;52.268;6.770;2022-07-19T09:47:32;1.90;;;1.80;;
21352;SDS011;10834;52.268;6.770;2022-07-19T09:50:22;2.83;;;2.05;;
21352;SDS011;10834;52.268;6.770;2022-07-19T09:53:08;1.88;;;1.77;;
21352;SDS011;10834;52.268;6.770;2022-07-19T09:55:55;2.33;;;2.13;;
21352;SDS011;10834;52.268;6.770;2022-07-19T09:58:41;2.00;;;1.90;;
21352;SDS011;10834;52.268;6.770;2022-07-19T10:01:29;2.80;;;1.70;;
21352;SDS011;10834;52.268;6.770;2022-07-19T10:04:17;2.20;;;2.00;;
21352;SDS011;10834;52.268;6.770;2022-07-19T10:07:04;1.80;;;1.70;;
21352;SDS011;10834;52.268;6.770;2022-07-19T10:09:50;2.00;;;1.90;;
21352;SDS011;10834;52.268;6.770;2022-07-19T10:12:37;2.00;;;1.75;;
21352;SDS011;10834;52.268;6.770;2022-07-19T10:15:24;1.85;;;1.73;;
21352;SDS011;10834;52.268;6.770;2022-07-19T10:18:15;1.95;;;1.80;;
21352;SDS011;10834;52.268;6.770;2022-07-19T10:21:05;2.00;;;1.90;;
21352;SDS011;10834;52.268;6.770;2022-07-19T10:23:51;1.83;;;1.73;;
21352;SDS011;10834;52.268;6.770;2022-07-19T10:29:25;2.17;;;1.95;;
21352;SDS011;10834;52.268;6.770;2022-07-19T10:32:12;3.28;;;2.15;;
21352;SDS011;10834;52.268;6.770;2022-07-19T10:38:10;1.88;;;1.77;;
21352;SDS011;10834;52.268;6.770;2022-07-19T10:40:56;2.05;;;1.85;;
21352;SDS011;10834;52.268;6.770;2022-07-19T10:44:06;1.65;;;1.55;;
21352;SDS011;10834;52.268;6.770;2022-07-19T10:46:54;2.00;;;1.80;;
21352;SDS011;10834;52.268;6.770;2022-07-19T10:49:41;1.67;;;1.58;;
21352;SDS011;10834;52.268;6.770;2022-07-19T10:52:40;2.00;;;1.90;;
21352;SDS011;10834;52.268;6.770;2022-07-19T10:55:30;2.20;;;2.00;;
21352;SDS011;10834;52.268;6.770;2022-07-19T10:58:16;2.05;;;1.95;;
21352;SDS011;10834;52.268;6.770;2022-07-19T11:01:13;2.65;;;1.70;;
21352;SDS011;10834;52.268;6.770;2022-07-19T11:07:20;1.98;;;1.80;;
21352;SDS011;10834;52.268;6.770;2022-07-19T11:10:08;1.95;;;1.77;;
21352;SDS011;10834;52.268;6.770;2022-07-19T11:12:55;2.38;;;2.10;;
21352;SDS011;10834;52.268;6.770;2022-07-19T11:15:53;2.38;;;1.85;;
21352;SDS011;10834;52.268;6.770;2022-07-19T11:18:42;1.80;;;1.65;;
21352;SDS011;10834;52.268;6.770;2022-07-19T11:21:30;1.45;;;1.35;;
21352;SDS011;10834;52.268;6.770;2022-07-19T11:24:20;1.70;;;1.60;;
21352;SDS011;10834;52.268;6.770;2022-07-19T11:27:06;1.88;;;1.77;;
21352;SDS011;10834;52.268;6.770;2022-07-19T11:29:58;1.98;;;1.77;;
21352;SDS011;10834;52.268;6.770;2022-07-19T11:32:50;3.00;;;2.10;;
21352;SDS011;10834;52.268;6.770;2022-07-19T11:35:37;2.65;;;1.85;;
21352;SDS011;10834;52.268;6.770;2022-07-19T11:38:32;1.60;;;1.50;;
21352;SDS011;10834;52.268;6.770;2022-07-19T11:44:08;1.77;;;1.67;;
21352;SDS011;10834;52.268;6.770;2022-07-19T11:46:55;2.28;;;2.08;;
21352;SDS011;10834;52.268;6.770;2022-07-19T11:49:42;1.75;;;1.60;;
21352;SDS011;10834;52.268;6.770;2022-07-19T11:52:28;1.38;;;1.27;;
21352;SDS011;10834;52.268;6.770;2022-07-19T11:55:15;1.90;;;1.80;;
21352;SDS011;10834;52.268;6.770;2022-07-19T11:58:06;1.40;;;1.33;;
21352;SDS011;10834;52.268;6.770;2022-07-19T12:00:59;1.70;;;1.60;;
21352;SDS011;10834;52.268;6.770;2022-07-19T12:03:52;1.80;;;1.70;;
21352;SDS011;10834;52.268;6.770;2022-07-19T12:06:43;1.98;;;1.73;;
21352;SDS011;10834;52.268;6.770;2022-07-19T12:09:31;1.63;;;1.52;;
21352;SDS011;10834;52.268;6.770;2022-07-19T12:12:19;1.88;;;1.77;;
21352;SDS011;10834;52.268;6.770;2022-07-19T12:15:06;1.92;;;1.83;;
21352;SDS011;10834;52.268;6.770;2022-07-19T12:17:56;1.75;;;1.65;;
21352;SDS011;10834;52.268;6.770;2022-07-19T12:20:43;1.80;;;1.70;;
21352;SDS011;10834;52.268;6.770;2022-07-19T12:23:30;1.63;;;1.52;;
21352;SDS011;10834;52.268;6.770;2022-07-19T12:26:16;2.10;;;1.67;;
21352;SDS011;10834;52.268;6.770;2022-07-19T12:32:10;2.13;;;2.00;;
21352;SDS011;10834;52.268;6.770;2022-07-19T12:37:46;1.50;;;1.40;;
21352;SDS011;10834;52.268;6.770;2022-07-19T12:40:35;1.58;;;1.48;;
21352;SDS011;10834;52.268;6.770;2022-07-19T12:43:22;2.03;;;1.30;;
21352;SDS011;10834;52.268;6.770;2022-07-19T12:46:08;1.80;;;1.48;;
21352;SDS011;10834;52.268;6.770;2022-07-19T12:48:54;3.65;;;1.58;;
21352;SDS011;10834;52.268;6.770;2022-07-19T12:51:40;1.90;;;1.80;;
21352;SDS011;10834;52.268;6.770;2022-07-19T12:54:29;1.60;;;1.50;;
21352;SDS011;10834;52.268;6.770;2022-07-19T12:57:15;1.35;;;1.30;;
21352;SDS011;10834;52.268;6.770;2022-07-19T13:00:01;1.63;;;1.52;;
21352;SDS011;10834;52.268;6.770;2022-07-19T13:02:49;2.70;;;1.67;;
21352;SDS011;10834;52.268;6.770;2022-07-19T13:05:36;1.55;;;1.45;;
21352;SDS011;10834;52.268;6.770;2022-07-19T13:08:22;1.63;;;1.52;;
21352;SDS011;10834;52.268;6.770;2022-07-19T13:11:08;1.63;;;1.52;;
21352;SDS011;10834;52.268;6.770;2022-07-19T13:13:54;1.52;;;1.42;;
21352;SDS011;10834;52.268;6.770;2022-07-19T13:16:40;1.83;;;1.73;;
21352;SDS011;10834;52.268;6.770;2022-07-19T13:19:26;1.63;;;1.52;;
21352;SDS011;10834;52.268;6.770;2022-07-19T13:22:12;1.63;;;1.48;;
21352;SDS011;10834;52.268;6.770;2022-07-19T13:24:59;1.70;;;1.60;;
21352;SDS011;10834;52.268;6.770;2022-07-19T13:27:45;1.60;;;1.50;;
21352;SDS011;10834;52.268;6.770;2022-07-19T13:30:31;1.75;;;1.65;;
21352;SDS011;10834;52.268;6.770;2022-07-19T13:33:17;1.52;;;1.42;;
21352;SDS011;10834;52.268;6.770;2022-07-19T13:36:03;2.13;;;1.60;;
21352;SDS011;10834;52.268;6.770;2022-07-19T13:38:50;2.03;;;1.60;;
21352;SDS011;10834;52.268;6.770;2022-07-19T13:41:36;2.13;;;1.80;;
21352;SDS011;10834;52.268;6.770;2022-07-19T13:44:23;1.75;;;1.65;;
21352;SDS011;10834;52.268;6.770;2022-07-19T13:47:09;1.85;;;1.75;;
21352;SDS011;10834;52.268;6.770;2022-07-19T13:49:55;2.05;;;1.95;;
21352;SDS011;10834;52.268;6.770;2022-07-19T13:52:44;1.98;;;1.88;;
21352;SDS011;10834;52.268;6.770;2022-07-19T13:55:30;1.92;;;1.65;;
21352;SDS011;10834;52.268;6.770;2022-07-19T13:58:17;1.75;;;1.65;;
21352;SDS011;10834;52.268;6.770;2022-07-19T14:01:03;2.45;;;1.45;;
21352;SDS011;10834;52.268;6.770;2022-07-19T14:03:49;2.35;;;1.80;;
21352;SDS011;10834;52.268;6.770;2022-07-19T14:06:35;2.10;;;2.00;;
21352;SDS011;10834;52.268;6.770;2022-07-19T14:09:22;1.80;;;1.70;;
21352;SDS011;10834;52.268;6.770;2022-07-19T14:12:08;2.30;;;1.80;;
21352;SDS011;10834;52.268;6.770;2022-07-19T14:14:54;2.10;;;2.00;;
21352;SDS011;10834;52.268;6.770;2022-07-19T14:17:40;1.80;;;1.70;;
21352;SDS011;10834;52.268;6.770;2022-07-19T14:20:26;1.70;;;1.60;;
21352;SDS011;10834;52.268;6.770;2022-07-19T14:23:12;1.58;;;1.48;;
21352;SDS011;10834;52.268;6.770;2022-07-19T14:25:59;1.77;;;1.67;;
21352;SDS011;10834;52.268;6.770;2022-07-19T14:28:45;1.70;;;1.60;;
21352;SDS011;10834;52.268;6.770;2022-07-19T14:31:31;2.38;;;2.17;;
21352;SDS011;10834;52.268;6.770;2022-07-19T14:34:17;1.58;;;1.48;;
21352;SDS011;10834;52.268;6.770;2022-07-19T14:37:04;2.17;;;1.70;;
21352;SDS011;10834;52.268;6.770;2022-07-19T14:39:51;1.60;;;1.50;;
21352;SDS011;10834;52.268;6.770;2022-07-19T14:42:37;1.65;;;1.55;;
21352;SDS011;10834;52.268;6.770;2022-07-19T14:45:24;1.73;;;1.52;;
21352;SDS011;10834;52.268;6.770;2022-07-19T14:48:10;1.75;;;1.65;;
21352;SDS011;10834;52.268;6.770;2022-07-19T14:50:57;2.63;;;1.60;;
21352;SDS011;10834;52.268;6.770;2022-07-19T14:53:43;1.73;;;1.63;;
21352;SDS011;10834;52.268;6.770;2022-07-19T14:56:29;1.63;;;1.52;;
21352;SDS011;10834;52.268;6.770;2022-07-19T14:59:16;2.13;;;1.90;;
21352;SDS011;10834;52.268;6.770;2022-07-19T15:02:02;2.33;;;2.13;;
21352;SDS011;10834;52.268;6.770;2022-07-19T15:04:48;1.98;;;1.88;;
21352;SDS011;10834;52.268;6.770;2022-07-19T15:07:35;2.25;;;2.15;;
21352;SDS011;10834;52.268;6.770;2022-07-19T15:10:21;1.85;;;1.75;;
21352;SDS011;10834;52.268;6.770;2022-07-19T15:13:07;2.15;;;1.90;;
21352;SDS011;10834;52.268;6.770;2022-07-19T15:15:53;2.00;;;1.90;;
21352;SDS011;10834;52.268;6.770;2022-07-19T15:18:39;1.60;;;1.50;;
21352;SDS011;10834;52.268;6.770;2022-07-19T15:21:25;1.50;;;1.40;;
21352;SDS011;10834;52.268;6.770;2022-07-19T15:24:11;3.25;;;1.75;;
21352;SDS011;10834;52.268;6.770;2022-07-19T15:26:58;2.13;;;1.92;;
21352;SDS011;10834;52.268;6.770;2022-07-19T15:29:44;2.10;;;2.00;;
21352;SDS011;10834;52.268;6.770;2022-07-19T15:32:30;1.95;;;1.85;;
21352;SDS011;10834;52.268;6.770;2022-07-19T15:35:16;1.88;;;1.77;;
21352;SDS011;10834;52.268;6.770;2022-07-19T15:38:02;2.20;;;2.00;;
21352;SDS011;10834;52.268;6.770;2022-07-19T15:40:48;1.92;;;1.83;;
21352;SDS011;10834;52.268;6.770;2022-07-19T15:43:34;1.90;;;1.80;;
21352;SDS011;10834;52.268;6.770;2022-07-19T15:46:20;2.28;;;1.98;;
21352;SDS011;10834;52.268;6.770;2022-07-19T15:49:06;1.92;;;1.83;;
21352;SDS011;10834;52.268;6.770;2022-07-19T15:51:52;1.73;;;1.63;;
21352;SDS011;10834;52.268;6.770;2022-07-19T15:54:39;1.88;;;1.77;;
21352;SDS011;10834;52.268;6.770;2022-07-19T15:57:25;1.95;;;1.60;;
21352;SDS011;10834;52.268;6.770;2022-07-19T16:00:11;1.67;;;1.40;;
21352;SDS011;10834;52.268;6.770;2022-07-19T16:02:58;1.77;;;1.67;;
21352;SDS011;10834;52.268;6.770;2022-07-19T16:05:44;3.10;;;2.10;;
21352;SDS011;10834;52.268;6.770;2022-07-19T16:08:30;1.92;;;1.83;;
21352;SDS011;10834;52.268;6.770;2022-07-19T16:11:16;2.08;;;1.98;;
21352;SDS011;10834;52.268;6.770;2022-07-19T16:14:02;1.90;;;1.80;;
21352;SDS011;10834;52.268;6.770;2022-07-19T16:16:48;2.38;;;1.80;;
21352;SDS011;10834;52.268;6.770;2022-07-19T16:19:35;2.13;;;1.77;;
21352;SDS011;10834;52.268;6.770;2022-07-19T16:22:21;2.03;;;1.92;;
21352;SDS011;10834;52.268;6.770;2022-07-19T16:25:07;1.55;;;1.45;;
21352;SDS011;10834;52.268;6.770;2022-07-19T16:27:54;2.90;;;2.70;;
21352;SDS011;10834;52.268;6.770;2022-07-19T16:30:40;2.00;;;1.90;;
21352;SDS011;10834;52.268;6.770;2022-07-19T16:33:26;2.22;;;2.13;;
21352;SDS011;10834;52.268;6.770;2022-07-19T16:36:12;2.30;;;1.95;;
21352;SDS011;10834;52.268;6.770;2022-07-19T16:38:58;2.30;;;2.10;;
21352;SDS011;10834;52.268;6.770;2022-07-19T16:41:44;1.92;;;1.75;;
21352;SDS011;10834;52.268;6.770;2022-07-19T16:44:30;2.53;;;2.33;;
21352;SDS011;10834;52.268;6.770;2022-07-19T16:47:16;3.33;;;1.85;;
21352;SDS011;10834;52.268;6.770;2022-07-19T16:50:02;2.38;;;2.17;;
21352;SDS011;10834;52.268;6.770;2022-07-19T16:52:49;1.83;;;1.73;;
21352;SDS011;10834;52.268;6.770;2022-07-19T16:55:35;1.83;;;1.73;;
21352;SDS011;10834;52.268;6.770;2022-07-19T16:58:22;2.03;;;1.92;;
21352;SDS011;10834;52.268;6.770;2022-07-19T17:01:08;2.13;;;1.98;;
21352;SDS011;10834;52.268;6.770;2022-07-19T17:03:54;2.20;;;2.00;;
21352;SDS011;10834;52.268;6.770;2022-07-19T17:06:40;1.83;;;1.73;;